Time;durP1;ratioP1;P1;durP2;ratioP2;P2;SDS_P1;SDS_P2;PMS_P1;PMS_P2;Temp;Humidity;BMP_temperature;BMP_pressure;BME280_temperature;BME280_humidity;BME280_pressure;Samples;Min_cycle;Max_cycle;Signal;HPM_P1;HPM_P2
2022/04/29 00:01:56;;;;;;;7.03;4.25;;;17.70;66.30;;;;;;1789505;80;21042;-57
2022/04/29 00:04:25;;;;;;;85.70;10.40;;;17.70;66.30;;;;;;1789501;80;21061;-56
2022/04/29 00:06:55;;;;;;;14.63;5.00;;;17.70;66.40;;;;;;1789536;80;21061;-57
2022/04/29 00:09:24;;;;;;;5.92;3.62;;;17.70;66.60;;;;;;1789501;80;21479;-56
2022/04/29 00:11:54;;;;;;;7.33;4.30;;;17.60;66.20;;;;;;1789531;80;21124;-56
2022/04/29 00:14:23;;;;;;;6.53;3.62;;;17.60;66.20;;;;;;1789496;80;21049;-56
2022/04/29 00:16:53;;;;;;;3.98;3.08;;;17.50;65.90;;;;;;1789532;80;21105;-56
2022/04/29 00:19:22;;;;;;;6.78;3.02;;;17.50;65.50;;;;;;1789470;80;21176;-56
2022/04/29 00:21:52;;;;;;;3.42;2.65;;;17.40;65.30;;;;;;1789522;80;21057;-56
2022/04/29 00:24:21;;;;;;;4.37;2.87;;;17.40;65.10;;;;;;1789546;80;21066;-56
2022/04/29 00:26:50;;;;;;;5.22;2.58;;;17.40;65.00;;;;;;1789528;80;21030;-56
2022/04/29 00:29:20;;;;;;;4.03;2.92;;;17.30;64.80;;;;;;1789518;80;21050;-57
2022/04/29 00:31:50;;;;;;;3.35;2.55;;;17.30;65.00;;;;;;1789633;80;21156;-57
2022/04/29 00:34:19;;;;;;;8.73;2.95;;;17.30;64.90;;;;;;1789624;80;21061;-57
2022/04/29 00:36:49;;;;;;;3.50;2.20;;;17.30;64.80;;;;;;1790573;80;21574;-57
2022/04/29 00:39:18;;;;;;;3.65;2.17;;;17.30;64.80;;;;;;1790988;80;21050;-57
2022/04/29 00:41:49;;;;;;;5.40;2.60;;;17.20;64.90;;;;;;1790883;80;21073;-57
2022/04/29 00:44:18;;;;;;;4.25;2.67;;;17.30;65.10;;;;;;1790859;80;21057;-57
2022/04/29 00:46:49;;;;;;;3.10;2.80;;;17.30;65.00;;;;;;1790988;80;21127;-59
2022/04/29 00:49:20;;;;;;;5.40;2.90;;;17.30;65.20;;;;;;1790913;80;21025;-58
2022/04/29 00:51:51;;;;;;;6.95;4.12;;;17.20;65.20;;;;;;1790891;80;21054;-57
2022/04/29 00:54:31;;;;;;;4.08;2.85;;;17.30;65.40;;;;;;1790983;80;21124;-57
2022/04/29 00:57:01;;;;;;;6.05;2.98;;;17.30;65.40;;;;;;1790969;80;21558;-57
2022/04/29 00:59:45;;;;;;;5.83;3.30;;;17.30;65.40;;;;;;1790958;80;21111;-57
2022/04/29 01:02:15;;;;;;;6.90;3.05;;;17.30;65.50;;;;;;1774409;80;21108;-57
2022/04/29 01:05:02;;;;;;;5.20;3.25;;;17.20;65.30;;;;;;1790895;80;21042;-57
2022/04/29 01:07:33;;;;;;;4.08;2.77;;;17.30;65.70;;;;;;1790881;80;21132;-57
2022/04/29 01:10:02;;;;;;;4.85;2.77;;;17.30;65.70;;;;;;1791002;80;21093;-57
2022/04/29 01:12:35;;;;;;;3.85;3.02;;;17.20;65.70;;;;;;1791006;80;21053;-57
2022/04/29 01:15:09;;;;;;;4.08;2.80;;;17.30;65.90;;;;;;1790964;80;21144;-57
2022/04/29 01:17:40;;;;;;;2.95;2.47;;;17.20;65.90;;;;;;1791026;80;21468;-57
2022/04/29 01:20:11;;;;;;;5.05;2.92;;;17.20;66.00;;;;;;1790905;80;21120;-57
2022/04/29 01:22:40;;;;;;;6.85;3.17;;;17.20;66.40;;;;;;1790891;80;21057;-57
2022/04/29 01:25:11;;;;;;;3.60;2.42;;;17.20;66.30;;;;;;1790877;80;21132;-57
2022/04/29 01:27:42;;;;;;;17.45;3.83;;;17.20;66.30;;;;;;1790560;79;21085;-57
2022/04/29 01:30:13;;;;;;;6.53;2.90;;;17.10;66.40;;;;;;1790879;80;21033;-57
2022/04/29 01:32:43;;;;;;;6.20;2.85;;;17.10;66.80;;;;;;1790973;80;21464;-56
2022/04/29 01:35:14;;;;;;;3.70;2.17;;;17.10;67.20;;;;;;1791005;80;21076;-57
2022/04/29 01:37:45;;;;;;;4.70;2.52;;;17.10;67.30;;;;;;1789720;80;21138;-57
2022/04/29 01:40:16;;;;;;;7.45;3.30;;;17.10;67.30;;;;;;1789538;80;21164;-57
2022/04/29 01:42:45;;;;;;;3.50;2.50;;;17.00;67.30;;;;;;1789439;80;21120;-57
2022/04/29 01:45:15;;;;;;;4.28;3.15;;;17.00;67.50;;;;;;1789454;80;21128;-57
2022/04/29 01:47:52;;;;;;;5.58;3.42;;;17.00;67.80;;;;;;1788466;80;21069;-57
2022/04/29 01:50:23;;;;;;;14.93;3.12;;;17.00;68.00;;;;;;1788070;80;21178;-57
2022/04/29 01:52:53;;;;;;;8.10;3.12;;;17.00;68.00;;;;;;1789458;80;21199;-57
2022/04/29 01:55:22;;;;;;;6.55;3.17;;;16.90;68.10;;;;;;1766972;80;21025;-57
2022/04/29 01:57:52;;;;;;;9.85;4.40;;;16.90;68.30;;;;;;1789465;80;21049;-57
2022/04/29 02:00:21;;;;;;;10.60;3.85;;;16.90;68.50;;;;;;1789564;80;21034;-57
2022/04/29 02:02:51;;;;;;;8.75;3.47;;;16.90;68.50;;;;;;1789636;80;21058;-57
2022/04/29 02:05:20;;;;;;;6.12;2.77;;;16.80;68.50;;;;;;1789443;80;21053;-57
2022/04/29 02:07:50;;;;;;;5.65;2.72;;;16.80;68.40;;;;;;1789406;80;21057;-57
2022/04/29 02:10:20;;;;;;;4.42;3.15;;;16.80;68.60;;;;;;1789505;80;21124;-57
2022/04/29 02:12:51;;;;;;;6.53;2.92;;;16.70;68.90;;;;;;1789572;80;21074;-57
2022/04/29 02:15:31;;;;;;;6.10;3.58;;;16.80;69.20;;;;;;1789536;80;21082;-57
2022/04/29 02:18:01;;;;;;;5.92;3.85;;;16.80;69.20;;;;;;1787364;80;21042;-57
2022/04/29 02:20:31;;;;;;;8.90;3.45;;;16.80;69.00;;;;;;1789502;80;21144;-57
2022/04/29 02:23:00;;;;;;;15.35;4.97;;;16.80;69.20;;;;;;1789509;80;21058;-57
2022/04/29 02:25:30;;;;;;;11.63;3.00;;;16.70;69.30;;;;;;1789485;80;21049;-58
2022/04/29 02:27:59;;;;;;;26.30;3.65;;;16.70;69.30;;;;;;1789529;80;21038;-58
2022/04/29 02:30:30;;;;;;;8.55;3.37;;;16.70;69.30;;;;;;1789491;80;21105;-57
2022/04/29 02:33:00;;;;;;;7.72;2.67;;;16.70;69.30;;;;;;1789427;80;21093;-57
2022/04/29 02:35:30;;;;;;;4.90;2.72;;;16.70;69.40;;;;;;1789542;80;21119;-57
2022/04/29 02:37:59;;;;;;;11.45;2.75;;;16.70;69.30;;;;;;1790294;80;21151;-57
2022/04/29 02:40:29;;;;;;;4.58;2.55;;;16.60;69.40;;;;;;1790826;80;21057;-57
2022/04/29 02:42:58;;;;;;;4.83;2.92;;;16.70;69.60;;;;;;1790833;80;21101;-57
2022/04/29 02:45:28;;;;;;;8.15;2.70;;;16.70;69.70;;;;;;1790807;80;21089;-58
2022/04/29 02:47:58;;;;;;;6.87;2.67;;;16.60;69.70;;;;;;1790874;80;21053;-57
2022/04/29 02:50:28;;;;;;;6.47;2.55;;;16.60;69.60;;;;;;1790972;80;21480;-58
2022/04/29 02:52:59;;;;;;;32.08;6.00;;;16.60;69.60;;;;;;1790267;80;21135;-57
2022/04/29 02:55:29;;;;;;;16.00;5.03;;;16.60;69.50;;;;;;1790834;80;21029;-58
2022/04/29 02:58:12;;;;;;;11.28;4.55;;;16.60;69.40;;;;;;1774036;80;21131;-57
2022/04/29 03:00:43;;;;;;;9.78;3.47;;;16.60;69.30;;;;;;1790821;80;21045;-57
2022/04/29 03:03:13;;;;;;;7.95;2.95;;;16.50;69.40;;;;;;1790790;80;21061;-57
2022/04/29 03:05:43;;;;;;;21.42;5.50;;;16.50;69.50;;;;;;1790836;80;21026;-57
2022/04/29 03:08:13;;;;;;;11.50;4.65;;;16.60;69.70;;;;;;1790866;80;21154;-57
2022/04/29 03:10:43;;;;;;;10.98;3.67;;;16.60;69.70;;;;;;1790913;80;21049;-57
2022/04/29 03:13:12;;;;;;;21.50;4.22;;;16.60;69.40;;;;;;1790803;80;21116;-57
2022/04/29 03:15:43;;;;;;;9.15;3.60;;;16.70;69.40;;;;;;1788886;80;21085;-57
2022/04/29 03:18:19;;;;;;;10.85;4.20;;;16.70;69.20;;;;;;1790810;80;21082;-57
2022/04/29 03:20:56;;;;;;;7.78;3.87;;;16.70;69.00;;;;;;1790857;80;21139;-58
2022/04/29 03:23:25;;;;;;;11.53;3.75;;;16.80;69.00;;;;;;1790890;80;21144;-58
2022/04/29 03:25:56;;;;;;;10.58;4.20;;;16.80;68.90;;;;;;1790965;80;21053;-57
2022/04/29 03:28:27;;;;;;;9.13;3.42;;;16.80;68.60;;;;;;1790907;80;21131;-58
2022/04/29 03:30:56;;;;;;;8.73;3.98;;;16.90;68.50;;;;;;1791045;80;21050;-57
2022/04/29 03:33:27;;;;;;;6.47;2.85;;;16.90;68.40;;;;;;1790756;79;21037;-58
2022/04/29 03:35:56;;;;;;;5.58;2.75;;;17.00;68.20;;;;;;1791001;80;21061;-57
2022/04/29 03:38:35;;;;;;;4.55;2.47;;;17.00;67.50;;;;;;1788941;80;21092;-58
2022/04/29 03:41:04;;;;;;;3.83;2.20;;;17.00;67.30;;;;;;1789530;80;21101;-58
2022/04/29 03:43:34;;;;;;;5.08;2.40;;;17.10;66.80;;;;;;1789472;80;21061;-57
2022/04/29 03:46:05;;;;;;;6.67;2.87;;;17.10;66.30;;;;;;1789502;80;21049;-57
2022/04/29 03:51:34;;;;;;;5.33;2.02;;;17.10;65.20;;;;;;1788345;80;21163;-57
2022/04/29 03:54:03;;;;;;;4.80;2.35;;;17.10;65.20;;;;;;1789620;80;21077;-57
2022/04/29 03:56:33;;;;;;;2.25;2.05;;;17.10;65.40;;;;;;1767088;80;21104;-58
2022/04/29 03:59:03;;;;;;;2.45;1.90;;;17.20;65.50;;;;;;1789467;80;21061;-57
2022/04/29 04:01:33;;;;;;;3.92;2.02;;;17.20;65.30;;;;;;1789470;80;21034;-58
2022/04/29 04:04:06;;;;;;;9.53;2.33;;;17.30;65.20;;;;;;1789034;80;21076;-57
2022/04/29 04:06:51;;;;;;;6.12;2.52;;;17.40;65.50;;;;;;1789538;80;21554;-58
2022/04/29 04:09:23;;;;;;;5.47;2.58;;;17.50;65.20;;;;;;1788987;80;21076;-57
2022/04/29 04:11:55;;;;;;;5.70;3.12;;;17.60;64.60;;;;;;1789307;80;21066;-57
2022/04/29 04:14:31;;;;;;;4.10;2.62;;;17.60;64.10;;;;;;1775916;80;21126;-57
2022/04/29 04:17:01;;;;;;;10.25;2.72;;;17.60;63.90;;;;;;1789448;80;21033;-57
2022/04/29 04:19:30;;;;;;;3.67;2.70;;;17.60;63.60;;;;;;1789561;80;21057;-58
2022/04/29 04:22:00;;;;;;;5.87;2.98;;;17.60;63.80;;;;;;1789556;80;21093;-58
2022/04/29 04:24:31;;;;;;;17.50;3.55;;;17.70;63.90;;;;;;1789527;80;21128;-57
2022/04/29 04:27:00;;;;;;;5.50;2.75;;;17.70;64.00;;;;;;1789586;80;21124;-57
2022/04/29 04:29:31;;;;;;;4.15;2.58;;;17.80;63.60;;;;;;1789434;80;21061;-57
2022/04/29 04:32:01;;;;;;;5.55;2.70;;;17.90;63.00;;;;;;1789510;80;21060;-57
2022/04/29 04:37:25;;;;;;;4.70;2.47;;;17.90;63.00;;;;;;1789588;80;21131;-57
2022/04/29 04:40:00;;;;;;;4.90;2.25;;;17.90;63.00;;;;;;1790369;80;21199;-58
2022/04/29 04:42:30;;;;;;;;;;;18.00;63.00;;;;;;1791543;80;21073;-58
2022/04/29 04:45:03;;;;;;;4.97;3.25;;;18.00;62.20;;;;;;1790887;80;20115;-57
2022/04/29 04:47:34;;;;;;;4.70;2.65;;;18.00;63.20;;;;;;1790493;79;21077;-58
2022/04/29 04:50:14;;;;;;;8.20;2.27;;;18.10;63.10;;;;;;1786505;80;21061;-58
2022/04/29 04:52:45;;;;;;;4.33;2.55;;;18.10;62.70;;;;;;1790861;80;21562;-58
2022/04/29 04:55:15;;;;;;;4.17;2.30;;;18.20;62.60;;;;;;1790865;80;21136;-58
2022/04/29 04:57:45;;;;;;;4.75;2.37;;;18.20;62.50;;;;;;1790926;80;21112;-58
2022/04/29 05:00:15;;;;;;;4.67;2.42;;;18.20;62.30;;;;;;1790753;80;21116;-57
2022/04/29 05:03:09;;;;;;;6.80;2.70;;;18.20;62.10;;;;;;1766214;81;21068;-58
2022/04/29 05:05:53;;;;;;;5.17;2.40;;;18.20;62.50;;;;;;1766223;81;21071;-58
2022/04/29 05:08:24;;;;;;;9.48;4.30;;;18.20;62.30;;;;;;1778794;80;21057;-58
2022/04/29 05:10:53;;;;;;;4.55;2.60;;;18.30;62.40;;;;;;1790885;80;21111;-58
2022/04/29 05:13:23;;;;;;;4.70;2.90;;;18.30;62.40;;;;;;1790749;80;21033;-58
2022/04/29 05:15:53;;;;;;;3.40;2.75;;;18.40;62.50;;;;;;1790984;80;21061;-58
2022/04/29 05:18:27;;;;;;;5.10;3.25;;;18.50;62.50;;;;;;1790299;79;21105;-57
2022/04/29 05:21:07;;;;;;;5.47;2.60;;;18.60;62.20;;;;;;1934839;70;21046;-58
2022/04/29 05:23:37;;;;;;;26.48;5.85;;;18.70;62.20;;;;;;1954417;73;21010;-57
2022/04/29 05:26:24;;;;;;;9.53;4.05;;;18.80;62.00;;;;;;1954225;73;21006;-57
2022/04/29 05:29:11;;;;;;;12.90;5.17;;;19.00;62.00;;;;;;1954458;73;21014;-57
2022/04/29 05:31:58;;;;;;;13.08;6.25;;;19.10;61.50;;;;;;1954456;73;21530;-57
2022/04/29 05:34:33;;;;;;;20.43;8.23;;;19.10;61.50;;;;;;1928689;73;21014;-57
2022/04/29 05:37:21;;;;;;;9.08;4.33;;;19.20;61.20;;;;;;1954381;73;20997;-57
2022/04/29 05:42:58;;;;;;;18.05;9.33;;;19.30;60.80;;;;;;1954405;73;21001;-56
2022/04/29 05:45:47;;;;;;;10.05;4.80;;;19.30;60.50;;;;;;1860615;76;21160;-57
2022/04/29 05:48:16;;;;;;;16.42;5.83;;;19.30;60.40;;;;;;1860693;77;21173;-57
2022/04/29 05:50:46;;;;;;;7.62;4.60;;;19.30;60.50;;;;;;1860637;77;21095;-56
2022/04/29 05:53:15;;;;;;;16.27;5.03;;;19.30;60.70;;;;;;1860763;77;21076;-57
2022/04/29 05:55:46;;;;;;;7.50;3.80;;;19.20;60.50;;;;;;1860244;77;21096;-56
2022/04/29 05:58:16;;;;;;;7.17;3.33;;;19.20;60.50;;;;;;1860762;77;21080;-57
2022/04/29 06:00:47;;;;;;;5.80;2.85;;;19.10;60.90;;;;;;1860785;75;21073;-57
2022/04/29 06:03:17;;;;;;;6.97;3.02;;;19.00;61.20;;;;;;1860729;77;21025;-57
2022/04/29 06:05:46;;;;;;;24.23;5.78;;;18.90;61.60;;;;;;1860803;77;21224;-57
2022/04/29 06:08:15;;;;;;;17.20;4.92;;;18.80;61.90;;;;;;1860834;77;21162;-57
2022/04/29 06:10:46;;;;;;;7.42;2.72;;;18.80;62.30;;;;;;1860709;77;21585;-57
2022/04/29 06:13:16;;;;;;;5.72;2.90;;;18.90;62.10;;;;;;1860640;77;21052;-57
2022/04/29 06:15:53;;;;;;;4.17;2.30;;;19.00;62.20;;;;;;1860245;76;21044;-57
2022/04/29 06:18:27;;;;;;;21.42;3.58;;;19.10;62.20;;;;;;1860532;77;21081;-57
2022/04/29 06:21:01;;;;;;;4.10;2.47;;;19.10;61.70;;;;;;1860664;77;21081;-57
2022/04/29 06:23:44;;;;;;;3.80;2.02;;;19.20;61.60;;;;;;1860556;77;21082;-57
2022/04/29 06:26:13;;;;;;;10.05;2.45;;;19.30;61.70;;;;;;1860590;77;21061;-57
2022/04/29 06:28:43;;;;;;;6.30;2.10;;;19.40;61.90;;;;;;1860749;77;21123;-58
2022/04/29 06:31:13;;;;;;;3.62;1.92;;;19.40;61.40;;;;;;1860367;77;21017;-57
2022/04/29 06:33:47;;;;;;;7.50;2.52;;;19.40;61.70;;;;;;1860798;77;21074;-58
2022/04/29 06:36:17;;;;;;;8.53;2.80;;;19.60;61.80;;;;;;1860704;77;21111;-58
2022/04/29 06:38:48;;;;;;;3.30;2.27;;;19.60;61.50;;;;;;1860656;77;21162;-57
2022/04/29 06:41:36;;;;;;;10.05;4.92;;;19.70;61.30;;;;;;1860683;77;21518;-58
2022/04/29 06:44:07;;;;;;;14.40;5.15;;;19.70;61.30;;;;;;1858372;77;21065;-58
2022/04/29 06:46:53;;;;;;;9.35;4.95;;;19.70;61.40;;;;;;1830591;78;21068;-58
2022/04/29 06:49:43;;;;;;;7.67;4.47;;;19.80;61.40;;;;;;1770816;81;21181;-58
2022/04/29 06:52:30;;;;;;;18.42;4.15;;;19.80;61.50;;;;;;1769647;81;21154;-57
2022/04/29 06:55:04;;;;;;;6.55;3.42;;;19.80;61.40;;;;;;1806650;78;21132;-57
2022/04/29 06:57:34;;;;;;;4.97;2.87;;;19.70;61.50;;;;;;1843791;77;21077;-57
2022/04/29 07:00:05;;;;;;;6.42;3.98;;;19.80;61.60;;;;;;1844120;78;21061;-56
2022/04/29 07:02:36;;;;;;;7.28;3.85;;;19.80;61.80;;;;;;1843778;78;21046;-57
2022/04/29 07:05:07;;;;;;;16.37;4.40;;;19.90;61.60;;;;;;1843914;78;21052;-57
2022/04/29 07:07:36;;;;;;;5.80;3.47;;;20.00;61.60;;;;;;1843740;78;21040;-57
2022/04/29 07:10:11;;;;;;;10.10;4.20;;;20.10;61.40;;;;;;1840896;77;21082;-57
2022/04/29 07:12:58;;;;;;;9.38;4.15;;;20.10;61.80;;;;;;1843872;78;21320;-57
2022/04/29 07:15:27;;;;;;;8.95;4.15;;;20.20;61.80;;;;;;1843923;78;21033;-57
2022/04/29 07:17:58;;;;;;;4.72;2.55;;;20.30;61.60;;;;;;1843123;77;21119;-57
2022/04/29 07:20:28;;;;;;;3.37;2.00;;;20.40;61.00;;;;;;1843729;78;21045;-57
2022/04/29 07:22:57;;;;;;;5.62;2.17;;;20.40;60.20;;;;;;1843774;78;21128;-57
2022/04/29 07:25:27;;;;;;;2.75;2.20;;;20.40;60.30;;;;;;1843885;77;21085;-56
2022/04/29 07:27:56;;;;;;;4.78;2.37;;;20.40;60.00;;;;;;1843846;77;21571;-57
2022/04/29 07:30:30;;;;;;;11.22;4.90;;;20.40;60.70;;;;;;1843775;78;21042;-57
2022/04/29 07:32:58;;;;;;;5.25;3.45;;;20.40;60.50;;;;;;1841982;78;21086;-57
2022/04/29 07:44:10;;;;;;;21.15;9.88;;;20.40;59.50;;;;;;1843766;78;21061;-57
2022/04/29 07:46:45;;;;;;;22.70;11.70;;;20.40;60.00;;;;;;1848746;77;21094;-57
2022/04/29 07:49:35;;;;;;;16.77;9.53;;;20.50;60.00;;;;;;1847424;76;21070;-57
2022/04/29 07:52:06;;;;;;;20.02;11.45;;;20.50;59.90;;;;;;1849154;77;21041;-57
2022/04/29 07:54:37;;;;;;;19.62;12.30;;;20.50;60.10;;;;;;1849185;77;21081;-58
2022/04/29 07:57:07;;;;;;;13.60;7.97;;;20.60;60.30;;;;;;1849184;77;21097;-57
2022/04/29 07:59:37;;;;;;;25.32;13.58;;;20.60;60.00;;;;;;1849241;77;21163;-57
2022/04/29 08:02:14;;;;;;;13.43;7.55;;;20.70;60.20;;;;;;1848013;77;21129;-58
2022/04/29 08:04:44;;;;;;;18.92;10.18;;;20.70;59.70;;;;;;1849119;77;21464;-58
2022/04/29 08:07:13;;;;;;;15.03;7.10;;;20.70;59.70;;;;;;1849003;77;21045;-58
2022/04/29 08:09:42;;;;;;;21.33;7.78;;;20.80;59.50;;;;;;1849074;77;21104;-57
2022/04/29 08:12:14;;;;;;;17.90;9.13;;;20.90;59.60;;;;;;1849017;77;21147;-57
2022/04/29 08:14:57;;;;;;;32.23;12.78;;;21.00;58.90;;;;;;1806999;77;21091;-57
2022/04/29 08:17:31;;;;;;;16.67;9.18;;;21.10;59.30;;;;;;1846395;77;21074;-58
2022/04/29 08:20:00;;;;;;;18.15;10.40;;;21.20;59.10;;;;;;1849137;77;21029;-57
2022/04/29 08:22:39;;;;;;;17.55;8.20;;;21.20;59.00;;;;;;1848008;76;21122;-57
2022/04/29 08:25:08;;;;;;;13.85;6.40;;;21.30;58.10;;;;;;1848971;77;21112;-57
2022/04/29 08:27:38;;;;;;;14.78;8.30;;;21.30;58.60;;;;;;1848948;77;21026;-57
2022/04/29 08:30:08;;;;;;;18.42;11.25;;;21.30;58.50;;;;;;1848951;77;21544;-57
2022/04/29 08:32:41;;;;;;;16.67;7.55;;;21.30;58.50;;;;;;1849067;77;21151;-58
2022/04/29 08:35:13;;;;;;;23.02;12.35;;;21.40;58.40;;;;;;1847966;77;21086;-57
2022/04/29 08:37:43;;;;;;;25.05;12.82;;;21.50;58.00;;;;;;1849248;77;21033;-57
2022/04/29 08:40:13;;;;;;;20.27;9.85;;;21.50;58.00;;;;;;1849038;77;21129;-57
2022/04/29 08:42:43;;;;;;;16.45;9.43;;;21.50;58.10;;;;;;1849113;77;21555;-57
2022/04/29 08:45:14;;;;;;;22.15;12.37;;;21.60;57.80;;;;;;1849465;76;21045;-57
2022/04/29 08:48:01;;;;;;;22.45;10.82;;;21.60;58.10;;;;;;1854000;77;21057;-57
2022/04/29 08:50:32;;;;;;;23.67;11.08;;;21.70;57.90;;;;;;1853007;77;21037;-56
2022/04/29 08:53:02;;;;;;;17.75;8.90;;;21.70;57.40;;;;;;1854048;77;21033;-57
2022/04/29 08:58:38;;;;;;;24.45;12.35;;;21.70;57.10;;;;;;1854108;77;21025;-57
2022/04/29 09:01:21;;;;;;;21.62;10.82;;;21.60;57.20;;;;;;1854094;77;21228;-57
2022/04/29 09:03:51;;;;;;;33.55;14.25;;;21.70;57.10;;;;;;1854207;77;21562;-57
2022/04/29 09:06:22;;;;;;;30.62;15.60;;;21.80;57.00;;;;;;1854194;77;21104;-57
2022/04/29 09:08:51;;;;;;;30.35;11.57;;;21.80;56.50;;;;;;1854028;77;21033;-57
2022/04/29 09:11:28;;;;;;;23.90;10.43;;;21.90;56.00;;;;;;1854170;77;21034;-57
2022/04/29 09:13:57;;;;;;;11.45;5.80;;;21.90;56.30;;;;;;1854278;77;21327;-57
2022/04/29 09:16:28;;;;;;;17.55;10.32;;;22.00;56.20;;;;;;1852723;77;21166;-57
2022/04/29 09:18:57;;;;;;;15.18;8.70;;;22.00;55.80;;;;;;1854153;77;21045;-58
2022/04/29 09:21:30;;;;;;;13.38;7.62;;;22.10;55.60;;;;;;1854171;77;21033;-57
2022/04/29 09:24:03;;;;;;;18.45;8.83;;;22.10;56.10;;;;;;1854150;77;21049;-57
2022/04/29 09:26:53;;;;;;;24.12;12.80;;;22.20;56.00;;;;;;1853539;77;21187;-58
2022/04/29 09:29:42;;;;;;;14.28;8.13;;;22.30;56.00;;;;;;1852613;77;21052;-57
2022/04/29 09:32:16;;;;;;;26.45;13.30;;;22.30;55.80;;;;;;1854204;77;21037;-57
2022/04/29 09:34:58;;;;;;;26.50;9.73;;;22.30;56.00;;;;;;1843936;77;21025;-57
2022/04/29 09:37:29;;;;;;;88.85;19.57;;;22.40;56.00;;;;;;1854072;77;21213;-57
2022/04/29 09:40:06;;;;;;;27.15;13.72;;;22.40;55.90;;;;;;1854102;77;21136;-57
2022/04/29 09:42:41;;;;;;;22.50;11.57;;;22.40;55.70;;;;;;1854167;77;21046;-57
2022/04/29 09:45:23;;;;;;;11.05;6.37;;;22.40;55.80;;;;;;1854196;77;21034;-57
2022/04/29 09:47:58;;;;;;;12.73;5.40;;;22.40;55.00;;;;;;1849360;77;21116;-57
2022/04/29 09:50:50;;;;;;;8.53;4.60;;;22.40;55.30;;;;;;1849135;77;21109;-57
2022/04/29 09:53:23;;;;;;;11.48;5.33;;;22.40;55.30;;;;;;1849163;77;21542;-57
2022/04/29 09:56:07;;;;;;;9.50;4.67;;;22.40;55.60;;;;;;1849038;77;21104;-56
2022/04/29 09:58:36;;;;;;;11.85;6.40;;;22.50;55.50;;;;;;1845877;77;21034;-57
2022/04/29 10:01:06;;;;;;;19.32;9.13;;;22.50;54.90;;;;;;1849126;77;21037;-56
2022/04/29 10:03:36;;;;;;;10.78;6.00;;;22.50;55.10;;;;;;1849096;77;21124;-57
2022/04/29 10:06:07;;;;;;;14.18;6.30;;;22.40;55.30;;;;;;1849111;77;21045;-57
2022/04/29 10:08:38;;;;;;;17.48;8.18;;;22.40;55.50;;;;;;1849128;77;21480;-57
2022/04/29 10:11:08;;;;;;;12.03;6.65;;;22.50;55.30;;;;;;1849019;77;21101;-57
2022/04/29 10:13:39;;;;;;;9.60;6.00;;;22.60;55.30;;;;;;1849114;77;21021;-57
2022/04/29 10:16:31;;;;;;;15.60;7.15;;;22.60;55.10;;;;;;1847757;77;21134;-57
2022/04/29 10:22:13;;;;;;;15.90;6.10;;;22.60;55.10;;;;;;1849002;77;21111;-58
2022/04/29 10:24:43;;;;;;;13.85;5.78;;;22.70;55.60;;;;;;1848983;77;21041;-58
2022/04/29 10:27:12;;;;;;;11.15;5.83;;;22.70;55.30;;;;;;1848982;77;21041;-58
2022/04/29 10:29:42;;;;;;;11.15;5.60;;;22.70;55.10;;;;;;1848937;77;21021;-59
2022/04/29 10:32:13;;;;;;;9.83;5.42;;;22.60;55.00;;;;;;1848940;77;21119;-58
2022/04/29 10:34:42;;;;;;;16.75;8.33;;;22.60;55.20;;;;;;1849051;77;21058;-58
2022/04/29 10:37:14;;;;;;;19.20;7.95;;;22.60;55.70;;;;;;1848993;77;21049;-58
2022/04/29 10:39:45;;;;;;;12.95;6.75;;;22.60;55.80;;;;;;1848913;77;21018;-58
2022/04/29 10:42:18;;;;;;;17.23;8.55;;;22.70;55.40;;;;;;1845257;75;21550;-58
2022/04/29 10:45:02;;;;;;;14.75;6.80;;;22.60;55.80;;;;;;1848788;77;21582;-58
2022/04/29 10:47:38;;;;;;;10.58;6.72;;;22.60;55.70;;;;;;1845967;77;21078;-57
2022/04/29 10:50:36;;;;;;;71.02;12.40;;;22.60;56.00;;;;;;1843746;78;21090;-57
2022/04/29 10:53:25;;;;;;;15.13;6.33;;;22.70;56.10;;;;;;1843654;78;21060;-57
2022/04/29 10:55:57;;;;;;;20.72;8.93;;;22.80;56.50;;;;;;1841212;77;21103;-58
2022/04/29 10:58:41;;;;;;;15.30;7.58;;;22.70;56.10;;;;;;1843366;77;21171;-58
2022/04/29 11:01:19;;;;;;;14.53;6.30;;;22.70;56.20;;;;;;1842987;78;21574;-58
2022/04/29 11:03:48;;;;;;;14.15;8.20;;;22.60;56.30;;;;;;1843568;78;21143;-58
2022/04/29 11:06:18;;;;;;;11.20;6.40;;;22.50;56.60;;;;;;1843630;78;21073;-58
2022/04/29 11:08:48;;;;;;;11.40;6.03;;;22.60;56.90;;;;;;1843605;78;21041;-58
2022/04/29 11:11:17;;;;;;;10.32;8.10;;;22.70;56.80;;;;;;1843621;78;21017;-57
2022/04/29 11:13:54;;;;;;;25.20;10.48;;;22.80;56.40;;;;;;1836024;77;21057;-57
2022/04/29 11:16:56;;;;;;;24.85;14.03;;;22.90;56.20;;;;;;1843702;78;21061;-57
2022/04/29 11:19:47;;;;;;;16.67;7.37;;;23.00;56.20;;;;;;1843521;77;21041;-58
2022/04/29 11:25:07;;;;;;;14.55;7.25;;;22.80;55.60;;;;;;1843697;78;21053;-58
2022/04/29 11:27:44;;;;;;;16.52;6.97;;;22.80;56.30;;;;;;1843724;77;21078;-58
2022/04/29 11:30:15;;;;;;;16.70;6.42;;;22.90;56.60;;;;;;1842904;77;21053;-58
2022/04/29 11:32:46;;;;;;;7.87;4.87;;;23.10;56.40;;;;;;1843308;77;21523;-57
2022/04/29 11:35:15;;;;;;;9.65;4.62;;;23.10;56.00;;;;;;1843590;78;21021;-58
2022/04/29 11:37:46;;;;;;;13.48;5.90;;;23.20;55.60;;;;;;1843768;78;21535;-58
2022/04/29 11:40:16;;;;;;;16.27;6.45;;;23.20;55.50;;;;;;1843713;78;21092;-58
2022/04/29 11:42:51;;;;;;;11.35;5.85;;;23.10;55.40;;;;;;1843685;78;21025;-57
2022/04/29 11:45:22;;;;;;;66.17;10.13;;;23.00;55.60;;;;;;1843811;78;21049;-57
2022/04/29 11:48:07;;;;;;;10.08;4.83;;;22.90;56.00;;;;;;1843168;77;21544;-58
2022/04/29 11:50:36;;;;;;;10.08;4.78;;;22.80;56.70;;;;;;1843833;78;21484;-58
2022/04/29 11:53:13;;;;;;;11.28;5.15;;;22.80;56.20;;;;;;1843889;78;21022;-58
2022/04/29 11:55:45;;;;;;;8.93;5.33;;;22.70;56.50;;;;;;1843766;78;21057;-58
2022/04/29 11:58:16;;;;;;;10.05;5.58;;;22.60;56.60;;;;;;1843711;77;21037;-58
2022/04/29 12:00:56;;;;;;;12.05;5.78;;;22.60;56.70;;;;;;1843766;78;21022;-57
2022/04/29 12:03:27;;;;;;;9.28;7.55;;;22.60;57.00;;;;;;1843799;78;21045;-58
2022/04/29 12:05:56;;;;;;;18.32;6.30;;;22.60;57.10;;;;;;1843634;78;21037;-57
2022/04/29 12:08:28;;;;;;;6.60;4.62;;;22.60;57.10;;;;;;1843767;78;21066;-58
2022/04/29 12:10:59;;;;;;;15.68;4.67;;;22.50;56.90;;;;;;1842603;77;21579;-57
2022/04/29 12:13:28;;;;;;;7.92;6.05;;;22.50;57.20;;;;;;1843800;78;21115;-58
2022/04/29 12:15:57;;;;;;;8.85;4.33;;;22.40;57.00;;;;;;1843799;78;21112;-59
2022/04/29 12:18:44;;;;;;;4.87;3.42;;;22.40;57.10;;;;;;1843800;78;21096;-58
2022/04/29 12:21:15;;;;;;;7.62;3.47;;;22.40;57.50;;;;;;1843627;77;21484;-58
2022/04/29 12:23:46;;;;;;;7.10;3.00;;;22.40;57.10;;;;;;1843808;77;21094;-57
2022/04/29 12:26:15;;;;;;;5.20;2.90;;;22.30;57.20;;;;;;1843669;78;21107;-58
2022/04/29 12:28:45;;;;;;;7.28;3.20;;;22.20;57.20;;;;;;1843676;78;21150;-56
2022/04/29 12:37:02;;;;;;;10.95;3.75;;;22.10;58.10;;;;;;1843387;77;21575;-58
2022/04/29 12:39:50;;;;;;;7.50;4.47;;;22.10;58.20;;;;;;1843736;76;21163;-58
2022/04/29 12:42:21;;;;;;;6.85;4.12;;;22.00;58.20;;;;;;1843771;77;21112;-58
2022/04/29 12:45:14;;;;;;;10.88;3.83;;;22.00;58.20;;;;;;1842850;77;21090;-58
2022/04/29 12:47:53;;;;;;;11.78;4.97;;;21.90;58.50;;;;;;1843403;76;21243;-58
2022/04/29 12:50:34;;;;;;;16.48;4.35;;;21.90;58.80;;;;;;1843450;77;21108;-58
2022/04/29 12:53:05;;;;;;;11.73;5.05;;;21.90;59.00;;;;;;1843829;78;21010;-58
2022/04/29 12:55:36;;;;;;;18.65;4.92;;;21.90;59.00;;;;;;1843705;78;21053;-58
2022/04/29 12:58:10;;;;;;;11.18;4.87;;;21.90;59.20;;;;;;1843708;78;21097;-58
2022/04/29 13:01:09;;;;;;;11.73;4.90;;;21.80;59.10;;;;;;1843963;78;21112;-59
2022/04/29 13:03:51;;;;;;;13.22;4.75;;;21.80;59.40;;;;;;1820090;78;21081;-58
2022/04/29 13:06:28;;;;;;;7.55;4.70;;;21.70;59.80;;;;;;1826426;78;21053;-57
2022/04/29 13:08:58;;;;;;;7.92;4.30;;;21.70;60.10;;;;;;1826918;78;21128;-57
2022/04/29 13:11:29;;;;;;;9.98;4.00;;;21.70;60.30;;;;;;1826910;78;21062;-58
2022/04/29 13:14:00;;;;;;;10.23;4.00;;;21.60;60.20;;;;;;1826833;78;21073;-57
2022/04/29 13:16:29;;;;;;;11.75;3.58;;;21.50;60.10;;;;;;1826844;78;21128;-57
2022/04/29 13:18:58;;;;;;;8.80;4.15;;;21.50;60.30;;;;;;1826870;78;21054;-58
2022/04/29 13:21:28;;;;;;;9.73;3.87;;;21.50;60.50;;;;;;1826801;78;21148;-58
2022/04/29 13:24:01;;;;;;;6.40;4.10;;;21.40;60.50;;;;;;1826571;78;21143;-58
2022/04/29 13:26:32;;;;;;;10.55;4.05;;;21.40;60.70;;;;;;1825111;78;21077;-57
2022/04/29 13:29:01;;;;;;;8.30;4.33;;;21.40;60.80;;;;;;1826894;78;21062;-57
2022/04/29 13:31:30;;;;;;;7.28;3.92;;;21.40;60.90;;;;;;1826861;78;21198;-57
2022/04/29 13:34:00;;;;;;;5.60;3.27;;;21.30;60.90;;;;;;1826749;78;21131;-57
2022/04/29 13:36:29;;;;;;;8.38;3.52;;;21.30;61.00;;;;;;1826871;78;21132;-57
2022/04/29 13:38:58;;;;;;;8.23;3.30;;;21.20;61.00;;;;;;1826809;78;21132;-57
2022/04/29 13:41:29;;;;;;;4.25;2.77;;;21.20;61.10;;;;;;1826693;78;21131;-57
2022/04/29 13:43:58;;;;;;;14.18;3.80;;;21.20;61.00;;;;;;1827028;78;21500;-57